sensor_id;sensor_type;location;lat;lon;timestamp;temperature;humidity
39983;DHT22;25670;44.782;10.356;2023-06-19T00:02:10;19.30;99.90
39983;DHT22;25670;44.782;10.356;2023-06-19T00:04:36;18.50;99.90
39983;DHT22;25670;44.782;10.356;2023-06-19T00:07:03;19.20;99.90
39983;DHT22;25670;44.782;10.356;2023-06-19T00:09:30;19.20;99.90
39983;DHT22;25670;44.782;10.356;2023-06-19T00:11:56;19.20;99.90
39983;DHT22;25670;44.782;10.356;2023-06-19T00:14:23;19.20;99.90
39983;DHT22;25670;44.782;10.356;2023-06-19T00:19:17;19.20;99.90
39983;DHT22;25670;44.782;10.356;2023-06-19T00:21:43;19.20;99.90
39983;DHT22;25670;44.782;10.356;2023-06-19T00:24:13;19.20;99.90
39983;DHT22;25670;44.782;10.356;2023-06-19T00:26:39;19.20;99.90
39983;DHT22;25670;44.782;10.356;2023-06-19T00:31:33;19.10;99.90
39983;DHT22;25670;44.782;10.356;2023-06-19T00:33:59;19.10;99.90
39983;DHT22;25670;44.782;10.356;2023-06-19T00:36:25;19.10;99.90
39983;DHT22;25670;44.782;10.356;2023-06-19T00:38:52;19.20;99.90
39983;DHT22;25670;44.782;10.356;2023-06-19T00:41:20;19.00;99.90
39983;DHT22;25670;44.782;10.356;2023-06-19T00:43:46;19.00;99.90
39983;DHT22;25670;44.782;10.356;2023-06-19T00:51:08;18.90;99.90
39983;DHT22;25670;44.782;10.356;2023-06-19T00:53:35;18.90;99.90
39983;DHT22;25670;44.782;10.356;2023-06-19T00:56:02;18.90;99.90
39983;DHT22;25670;44.782;10.356;2023-06-19T00:58:30;18.90;99.90
39983;DHT22;25670;44.782;10.356;2023-06-19T01:00:56;18.90;99.90
39983;DHT22;25670;44.782;10.356;2023-06-19T01:03:23;18.90;99.90
39983;DHT22;25670;44.782;10.356;2023-06-19T01:05:53;18.90;99.90
39983;DHT22;25670;44.782;10.356;2023-06-19T01:10:51;18.90;99.90
39983;DHT22;25670;44.782;10.356;2023-06-19T01:13:41;19.00;99.90
39983;DHT22;25670;44.782;10.356;2023-06-19T01:16:09;19.00;99.90
39983;DHT22;25670;44.782;10.356;2023-06-19T01:18:37;18.90;99.90
39983;DHT22;25670;44.782;10.356;2023-06-19T01:21:14;19.00;99.90
39983;DHT22;25670;44.782;10.356;2023-06-19T01:23:41;18.90;99.90
39983;DHT22;25670;44.782;10.356;2023-06-19T01:26:08;19.00;99.90
39983;DHT22;25670;44.782;10.356;2023-06-19T01:28:40;19.00;99.90
39983;DHT22;25670;44.782;10.356;2023-06-19T01:31:12;18.90;99.90
39983;DHT22;25670;44.782;10.356;2023-06-19T01:33:40;18.90;99.90
39983;DHT22;25670;44.782;10.356;2023-06-19T01:36:09;18.80;99.90
39983;DHT22;25670;44.782;10.356;2023-06-19T01:41:05;18.80;99.90
39983;DHT22;25670;44.782;10.356;2023-06-19T01:48:30;18.70;99.90
39983;DHT22;25670;44.782;10.356;2023-06-19T01:50:56;18.70;99.90
39983;DHT22;25670;44.782;10.356;2023-06-19T01:53:22;18.70;99.90
39983;DHT22;25670;44.782;10.356;2023-06-19T01:58:15;18.70;99.90
39983;DHT22;25670;44.782;10.356;2023-06-19T02:03:08;18.60;99.90
39983;DHT22;25670;44.782;10.356;2023-06-19T02:05:34;18.60;99.90
39983;DHT22;25670;44.782;10.356;2023-06-19T02:08:05;18.60;99.90
39983;DHT22;25670;44.782;10.356;2023-06-19T02:10:36;18.50;99.90
39983;DHT22;25670;44.782;10.356;2023-06-19T02:15:29;18.50;99.90
39983;DHT22;25670;44.782;10.356;2023-06-19T02:17:56;18.50;99.90
39983;DHT22;25670;44.782;10.356;2023-06-19T02:20:23;18.50;99.90
39983;DHT22;25670;44.782;10.356;2023-06-19T02:22:51;18.40;99.90
39983;DHT22;25670;44.782;10.356;2023-06-19T02:25:17;18.50;99.90
39983;DHT22;25670;44.782;10.356;2023-06-19T02:27:44;18.50;99.90
39983;DHT22;25670;44.782;10.356;2023-06-19T02:30:11;18.50;99.90
39983;DHT22;25670;44.782;10.356;2023-06-19T02:32:37;18.60;99.90
39983;DHT22;25670;44.782;10.356;2023-06-19T02:35:09;18.60;99.90
39983;DHT22;25670;44.782;10.356;2023-06-19T02:37:35;18.60;99.90
39983;DHT22;25670;44.782;10.356;2023-06-19T02:40:04;18.60;99.90
39983;DHT22;25670;44.782;10.356;2023-06-19T02:42:32;18.60;99.90
39983;DHT22;25670;44.782;10.356;2023-06-19T02:45:00;18.60;99.90
39983;DHT22;25670;44.782;10.356;2023-06-19T02:47:30;18.90;99.90
39983;DHT22;25670;44.782;10.356;2023-06-19T02:50:01;18.70;99.90
39983;DHT22;25670;44.782;10.356;2023-06-19T02:52:28;18.80;99.90
39983;DHT22;25670;44.782;10.356;2023-06-19T02:54:54;18.80;99.90
39983;DHT22;25670;44.782;10.356;2023-06-19T02:57:21;18.80;99.90
39983;DHT22;25670;44.782;10.356;2023-06-19T02:59:47;18.80;99.90
39983;DHT22;25670;44.782;10.356;2023-06-19T03:02:17;18.80;99.90
39983;DHT22;25670;44.782;10.356;2023-06-19T03:04:43;18.80;99.90
39983;DHT22;25670;44.782;10.356;2023-06-19T03:07:12;18.70;99.90
39983;DHT22;25670;44.782;10.356;2023-06-19T03:09:42;19.00;99.90
39983;DHT22;25670;44.782;10.356;2023-06-19T03:12:09;18.80;99.90
39983;DHT22;25670;44.782;10.356;2023-06-19T03:14:35;18.80;99.90
39983;DHT22;25670;44.782;10.356;2023-06-19T03:17:02;18.80;99.90
39983;DHT22;25670;44.782;10.356;2023-06-19T03:19:29;18.80;99.90
39983;DHT22;25670;44.782;10.356;2023-06-19T03:21:55;18.90;99.90
39983;DHT22;25670;44.782;10.356;2023-06-19T03:26:51;18.90;99.90
39983;DHT22;25670;44.782;10.356;2023-06-19T03:29:18;18.90;99.90
39983;DHT22;25670;44.782;10.356;2023-06-19T03:31:59;18.90;99.90
39983;DHT22;25670;44.782;10.356;2023-06-19T03:34:31;18.90;99.90
39983;DHT22;25670;44.782;10.356;2023-06-19T03:36:58;18.90;99.90
39983;DHT22;25670;44.782;10.356;2023-06-19T03:44:26;19.00;99.90
39983;DHT22;25670;44.782;10.356;2023-06-19T03:47:07;18.90;99.90
39983;DHT22;25670;44.782;10.356;2023-06-19T03:52:00;18.90;99.90
39983;DHT22;25670;44.782;10.356;2023-06-19T03:54:27;18.90;99.90
39983;DHT22;25670;44.782;10.356;2023-06-19T03:56:53;18.90;99.90
39983;DHT22;25670;44.782;10.356;2023-06-19T03:59:19;18.90;99.90
39983;DHT22;25670;44.782;10.356;2023-06-19T04:01:45;18.80;99.90
39983;DHT22;25670;44.782;10.356;2023-06-19T04:04:11;18.90;99.90
39983;DHT22;25670;44.782;10.356;2023-06-19T04:06:38;18.90;99.90
39983;DHT22;25670;44.782;10.356;2023-06-19T04:09:06;19.00;99.90
39983;DHT22;25670;44.782;10.356;2023-06-19T04:11:32;19.20;99.90
39983;DHT22;25670;44.782;10.356;2023-06-19T04:13:59;19.20;99.90
39983;DHT22;25670;44.782;10.356;2023-06-19T04:16:25;21.20;99.90
39983;DHT22;25670;44.782;10.356;2023-06-19T04:18:51;19.30;99.90
39983;DHT22;25670;44.782;10.356;2023-06-19T04:21:17;19.40;99.90
39983;DHT22;25670;44.782;10.356;2023-06-19T04:26:10;19.50;99.90
39983;DHT22;25670;44.782;10.356;2023-06-19T04:28:36;19.50;99.90
39983;DHT22;25670;44.782;10.356;2023-06-19T04:33:29;19.80;99.90
39983;DHT22;25670;44.782;10.356;2023-06-19T04:35:56;19.90;99.90
39983;DHT22;25670;44.782;10.356;2023-06-19T04:38:22;19.90;99.90
39983;DHT22;25670;44.782;10.356;2023-06-19T04:40:52;20.00;99.90
39983;DHT22;25670;44.782;10.356;2023-06-19T04:43:18;20.10;99.90
39983;DHT22;25670;44.782;10.356;2023-06-19T04:45:44;20.10;99.90
39983;DHT22;25670;44.782;10.356;2023-06-19T04:48:11;20.20;99.90
39983;DHT22;25670;44.782;10.356;2023-06-19T04:50:37;20.20;99.90
39983;DHT22;25670;44.782;10.356;2023-06-19T04:53:04;20.20;99.90
39983;DHT22;25670;44.782;10.356;2023-06-19T04:55:30;20.20;99.90
39983;DHT22;25670;44.782;10.356;2023-06-19T04:57:56;20.30;99.90
39983;DHT22;25670;44.782;10.356;2023-06-19T05:00:22;20.40;99.90
39983;DHT22;25670;44.782;10.356;2023-06-19T05:02:50;20.30;99.90
39983;DHT22;25670;44.782;10.356;2023-06-19T05:05:17;20.30;99.90
39983;DHT22;25670;44.782;10.356;2023-06-19T05:07:44;20.30;99.90
39983;DHT22;25670;44.782;10.356;2023-06-19T05:10:11;20.20;99.90
39983;DHT22;25670;44.782;10.356;2023-06-19T05:15:04;20.30;99.90
39983;DHT22;25670;44.782;10.356;2023-06-19T05:17:30;20.30;99.90
39983;DHT22;25670;44.782;10.356;2023-06-19T05:19:56;20.20;99.90
39983;DHT22;25670;44.782;10.356;2023-06-19T05:24:49;20.20;99.90
39983;DHT22;25670;44.782;10.356;2023-06-19T05:27:16;19.70;99.90
39983;DHT22;25670;44.782;10.356;2023-06-19T05:29:42;20.40;99.90
39983;DHT22;25670;44.782;10.356;2023-06-19T05:32:08;20.50;99.90
39983;DHT22;25670;44.782;10.356;2023-06-19T05:34:34;20.60;99.90
39983;DHT22;25670;44.782;10.356;2023-06-19T05:37:01;20.70;99.90
39983;DHT22;25670;44.782;10.356;2023-06-19T05:41:56;20.90;99.90
39983;DHT22;25670;44.782;10.356;2023-06-19T05:46:49;21.20;99.90
39983;DHT22;25670;44.782;10.356;2023-06-19T05:49:15;21.30;99.90
39983;DHT22;25670;44.782;10.356;2023-06-19T05:51:41;21.40;99.90
39983;DHT22;25670;44.782;10.356;2023-06-19T05:56:35;21.70;99.90
39983;DHT22;25670;44.782;10.356;2023-06-19T05:59:02;21.80;99.90
39983;DHT22;25670;44.782;10.356;2023-06-19T06:01:29;21.80;99.90
39983;DHT22;25670;44.782;10.356;2023-06-19T06:03:56;21.90;99.90
39983;DHT22;25670;44.782;10.356;2023-06-19T06:06:23;22.00;99.90
39983;DHT22;25670;44.782;10.356;2023-06-19T06:08:49;22.00;99.90
39983;DHT22;25670;44.782;10.356;2023-06-19T06:11:17;22.10;99.90
39983;DHT22;25670;44.782;10.356;2023-06-19T06:13:43;21.70;99.90
39983;DHT22;25670;44.782;10.356;2023-06-19T06:16:10;22.40;99.90
39983;DHT22;25670;44.782;10.356;2023-06-19T06:18:36;22.50;99.90
39983;DHT22;25670;44.782;10.356;2023-06-19T06:21:02;22.60;99.90
39983;DHT22;25670;44.782;10.356;2023-06-19T06:23:30;22.60;99.90
39983;DHT22;25670;44.782;10.356;2023-06-19T06:25:56;22.60;99.90
39983;DHT22;25670;44.782;10.356;2023-06-19T06:28:28;22.60;99.90
39983;DHT22;25670;44.782;10.356;2023-06-19T06:30:55;22.60;99.90
39983;DHT22;25670;44.782;10.356;2023-06-19T06:33:21;22.60;99.90
39983;DHT22;25670;44.782;10.356;2023-06-19T06:35:47;22.70;99.90
39983;DHT22;25670;44.782;10.356;2023-06-19T06:38:14;22.60;99.90
39983;DHT22;25670;44.782;10.356;2023-06-19T06:40:40;22.50;99.90
39983;DHT22;25670;44.782;10.356;2023-06-19T06:43:07;22.40;99.90
39983;DHT22;25670;44.782;10.356;2023-06-19T06:45:33;22.40;99.90
39983;DHT22;25670;44.782;10.356;2023-06-19T06:48:00;22.40;99.90
39983;DHT22;25670;44.782;10.356;2023-06-19T06:50:26;22.40;99.90
39983;DHT22;25670;44.782;10.356;2023-06-19T06:52:52;22.40;99.90
39983;DHT22;25670;44.782;10.356;2023-06-19T06:55:18;22.50;99.90
39983;DHT22;25670;44.782;10.356;2023-06-19T06:57:44;22.60;99.90
39983;DHT22;25670;44.782;10.356;2023-06-19T07:00:11;22.70;99.90
39983;DHT22;25670;44.782;10.356;2023-06-19T07:02:38;22.90;99.90
39983;DHT22;25670;44.782;10.356;2023-06-19T07:05:08;23.00;99.90
39983;DHT22;25670;44.782;10.356;2023-06-19T07:07:34;23.20;99.90
39983;DHT22;25670;44.782;10.356;2023-06-19T07:10:00;22.10;99.90
39983;DHT22;25670;44.782;10.356;2023-06-19T07:14:53;23.40;99.90
39983;DHT22;25670;44.782;10.356;2023-06-19T07:17:20;23.50;99.90
39983;DHT22;25670;44.782;10.356;2023-06-19T07:19:47;23.70;99.90
39983;DHT22;25670;44.782;10.356;2023-06-19T07:22:13;24.00;99.90
39983;DHT22;25670;44.782;10.356;2023-06-19T07:24:40;24.10;99.90
39983;DHT22;25670;44.782;10.356;2023-06-19T07:27:07;24.40;99.90
39983;DHT22;25670;44.782;10.356;2023-06-19T07:29:33;25.60;99.90
39983;DHT22;25670;44.782;10.356;2023-06-19T07:31:59;25.20;99.90
39983;DHT22;25670;44.782;10.356;2023-06-19T07:34:28;25.60;99.90
39983;DHT22;25670;44.782;10.356;2023-06-19T07:36:54;25.80;99.90
39983;DHT22;25670;44.782;10.356;2023-06-19T07:39:21;26.00;99.90
39983;DHT22;25670;44.782;10.356;2023-06-19T07:41:47;26.10;99.90
39983;DHT22;25670;44.782;10.356;2023-06-19T07:44:13;26.30;99.90
39983;DHT22;25670;44.782;10.356;2023-06-19T07:46:43;26.30;99.90
39983;DHT22;25670;44.782;10.356;2023-06-19T07:49:09;26.10;99.90
39983;DHT22;25670;44.782;10.356;2023-06-19T07:51:36;25.90;99.90
39983;DHT22;25670;44.782;10.356;2023-06-19T07:54:02;25.90;99.90
39983;DHT22;25670;44.782;10.356;2023-06-19T07:56:28;26.00;99.90
39983;DHT22;25670;44.782;10.356;2023-06-19T07:58:54;25.90;99.90
39983;DHT22;25670;44.782;10.356;2023-06-19T08:01:21;25.80;99.90
39983;DHT22;25670;44.782;10.356;2023-06-19T08:03:47;25.70;99.90
39983;DHT22;25670;44.782;10.356;2023-06-19T08:06:13;25.60;99.90
39983;DHT22;25670;44.782;10.356;2023-06-19T08:08:39;25.50;99.90
39983;DHT22;25670;44.782;10.356;2023-06-19T08:11:05;25.60;99.90
39983;DHT22;25670;44.782;10.356;2023-06-19T08:13:32;25.60;99.90
39983;DHT22;25670;44.782;10.356;2023-06-19T08:15:58;25.70;99.90
39983;DHT22;25670;44.782;10.356;2023-06-19T08:18:24;25.80;99.90
39983;DHT22;25670;44.782;10.356;2023-06-19T08:20:50;25.90;99.90
39983;DHT22;25670;44.782;10.356;2023-06-19T08:23:16;26.10;99.90
39983;DHT22;25670;44.782;10.356;2023-06-19T08:25:43;26.20;99.90
39983;DHT22;25670;44.782;10.356;2023-06-19T08:28:09;26.20;99.90
39983;DHT22;25670;44.782;10.356;2023-06-19T08:30:35;26.40;99.90
39983;DHT22;25670;44.782;10.356;2023-06-19T08:33:01;26.60;99.90
39983;DHT22;25670;44.782;10.356;2023-06-19T08:35:27;26.80;99.90
39983;DHT22;25670;44.782;10.356;2023-06-19T08:37:53;27.00;99.90
39983;DHT22;25670;44.782;10.356;2023-06-19T08:40:20;26.90;99.90
39983;DHT22;25670;44.782;10.356;2023-06-19T08:42:47;26.80;99.90
39983;DHT22;25670;44.782;10.356;2023-06-19T08:45:13;26.90;99.90
39983;DHT22;25670;44.782;10.356;2023-06-19T08:47:41;26.90;99.90
39983;DHT22;25670;44.782;10.356;2023-06-19T08:50:08;27.00;99.90
39983;DHT22;25670;44.782;10.356;2023-06-19T08:52:34;27.00;99.90
39983;DHT22;25670;44.782;10.356;2023-06-19T08:55:01;27.10;99.90
39983;DHT22;25670;44.782;10.356;2023-06-19T08:57:35;27.30;99.90
39983;DHT22;25670;44.782;10.356;2023-06-19T09:00:03;27.40;99.90
39983;DHT22;25670;44.782;10.356;2023-06-19T09:02:40;27.50;99.90
39983;DHT22;25670;44.782;10.356;2023-06-19T09:05:11;27.60;99.90
39983;DHT22;25670;44.782;10.356;2023-06-19T09:07:38;27.60;99.90
39983;DHT22;25670;44.782;10.356;2023-06-19T09:10:18;27.60;99.90
39983;DHT22;25670;44.782;10.356;2023-06-19T09:13:03;27.70;99.90
39983;DHT22;25670;44.782;10.356;2023-06-19T09:15:34;28.00;99.90
39983;DHT22;25670;44.782;10.356;2023-06-19T09:18:05;28.20;99.90
39983;DHT22;25670;44.782;10.356;2023-06-19T09:20:33;28.30;99.90
39983;DHT22;25670;44.782;10.356;2023-06-19T09:23:00;28.30;99.90
39983;DHT22;25670;44.782;10.356;2023-06-19T09:25:26;28.20;99.90
39983;DHT22;25670;44.782;10.356;2023-06-19T09:27:54;28.40;99.90
39983;DHT22;25670;44.782;10.356;2023-06-19T09:30:20;28.50;99.90
39983;DHT22;25670;44.782;10.356;2023-06-19T09:32:47;28.80;99.90
39983;DHT22;25670;44.782;10.356;2023-06-19T09:35:13;29.10;99.90
39983;DHT22;25670;44.782;10.356;2023-06-19T09:37:40;29.30;99.90
39983;DHT22;25670;44.782;10.356;2023-06-19T09:40:07;29.70;99.90
39983;DHT22;25670;44.782;10.356;2023-06-19T09:42:38;30.00;99.90
39983;DHT22;25670;44.782;10.356;2023-06-19T09:45:12;29.90;99.90
39983;DHT22;25670;44.782;10.356;2023-06-19T09:47:45;30.10;99.70
39983;DHT22;25670;44.782;10.356;2023-06-19T09:50:14;30.40;99.10
39983;DHT22;25670;44.782;10.356;2023-06-19T09:52:42;30.80;98.70
39983;DHT22;25670;44.782;10.356;2023-06-19T09:55:10;31.30;98.10
39983;DHT22;25670;44.782;10.356;2023-06-19T09:57:40;31.50;97.20
39983;DHT22;25670;44.782;10.356;2023-06-19T10:00:08;30.90;96.70
39983;DHT22;25670;44.782;10.356;2023-06-19T10:02:45;30.90;96.90
39983;DHT22;25670;44.782;10.356;2023-06-19T10:05:12;30.30;97.10
39983;DHT22;25670;44.782;10.356;2023-06-19T10:07:44;29.90;97.30
39983;DHT22;25670;44.782;10.356;2023-06-19T10:10:22;29.70;97.60
39983;DHT22;25670;44.782;10.356;2023-06-19T10:12:49;29.70;97.70
39983;DHT22;25670;44.782;10.356;2023-06-19T10:15:20;29.90;98.30
39983;DHT22;25670;44.782;10.356;2023-06-19T10:20:39;30.50;97.10
39983;DHT22;25670;44.782;10.356;2023-06-19T10:23:19;30.60;97.30
39983;DHT22;25670;44.782;10.356;2023-06-19T10:28:25;30.70;96.50
39983;DHT22;25670;44.782;10.356;2023-06-19T10:30:55;30.80;96.30
39983;DHT22;25670;44.782;10.356;2023-06-19T10:33:24;30.80;96.20
39983;DHT22;25670;44.782;10.356;2023-06-19T10:35:50;31.00;96.30
39983;DHT22;25670;44.782;10.356;2023-06-19T10:38:17;30.90;96.40
39983;DHT22;25670;44.782;10.356;2023-06-19T10:40:44;30.80;96.20
39983;DHT22;25670;44.782;10.356;2023-06-19T10:43:12;30.90;96.00
39983;DHT22;25670;44.782;10.356;2023-06-19T10:45:38;31.00;96.40
39983;DHT22;25670;44.782;10.356;2023-06-19T10:48:05;31.00;96.20
39983;DHT22;25670;44.782;10.356;2023-06-19T10:50:41;30.90;96.40
39983;DHT22;25670;44.782;10.356;2023-06-19T10:53:08;30.60;96.20
39983;DHT22;25670;44.782;10.356;2023-06-19T10:55:34;30.70;96.20
39983;DHT22;25670;44.782;10.356;2023-06-19T10:58:00;30.80;95.90
39983;DHT22;25670;44.782;10.356;2023-06-19T11:00:29;30.80;95.40
39983;DHT22;25670;44.782;10.356;2023-06-19T11:02:57;30.80;95.40
39983;DHT22;25670;44.782;10.356;2023-06-19T11:05:24;30.90;95.10
39983;DHT22;25670;44.782;10.356;2023-06-19T11:07:55;30.90;94.90
39983;DHT22;25670;44.782;10.356;2023-06-19T11:10:24;31.10;95.30
39983;DHT22;25670;44.782;10.356;2023-06-19T11:12:55;31.20;95.10
39983;DHT22;25670;44.782;10.356;2023-06-19T11:15:29;31.20;95.40
39983;DHT22;25670;44.782;10.356;2023-06-19T11:17:58;31.10;95.40
39983;DHT22;25670;44.782;10.356;2023-06-19T11:20:24;31.30;94.70
39983;DHT22;25670;44.782;10.356;2023-06-19T11:22:59;31.40;94.30
39983;DHT22;25670;44.782;10.356;2023-06-19T11:25:39;31.50;94.30
39983;DHT22;25670;44.782;10.356;2023-06-19T11:28:11;31.30;94.20
39983;DHT22;25670;44.782;10.356;2023-06-19T11:30:39;31.40;94.90
39983;DHT22;25670;44.782;10.356;2023-06-19T11:33:22;31.40;94.10
39983;DHT22;25670;44.782;10.356;2023-06-19T11:35:53;31.40;94.70
39983;DHT22;25670;44.782;10.356;2023-06-19T11:38:24;31.10;94.60
39983;DHT22;25670;44.782;10.356;2023-06-19T11:40:52;31.20;95.00
39983;DHT22;25670;44.782;10.356;2023-06-19T11:43:30;31.10;94.40
39983;DHT22;25670;44.782;10.356;2023-06-19T11:46:04;31.40;94.30
39983;DHT22;25670;44.782;10.356;2023-06-19T11:48:32;31.80;94.30
39983;DHT22;25670;44.782;10.356;2023-06-19T11:50:58;32.10;93.70
39983;DHT22;25670;44.782;10.356;2023-06-19T11:53:24;32.00;94.50
39983;DHT22;25670;44.782;10.356;2023-06-19T11:55:51;32.00;94.20
39983;DHT22;25670;44.782;10.356;2023-06-19T11:58:17;31.60;93.40
39983;DHT22;25670;44.782;10.356;2023-06-19T12:00:46;32.20;93.50
39983;DHT22;25670;44.782;10.356;2023-06-19T12:03:13;32.50;93.50
39983;DHT22;25670;44.782;10.356;2023-06-19T12:05:39;32.70;94.20
39983;DHT22;25670;44.782;10.356;2023-06-19T12:08:06;32.60;93.30
39983;DHT22;25670;44.782;10.356;2023-06-19T12:10:33;32.60;92.80
39983;DHT22;25670;44.782;10.356;2023-06-19T12:12:59;32.80;93.00
39983;DHT22;25670;44.782;10.356;2023-06-19T12:15:26;32.90;92.90
39983;DHT22;25670;44.782;10.356;2023-06-19T12:17:52;33.00;93.50
39983;DHT22;25670;44.782;10.356;2023-06-19T12:20:19;33.50;94.00
39983;DHT22;25670;44.782;10.356;2023-06-19T12:22:45;33.70;93.60
39983;DHT22;25670;44.782;10.356;2023-06-19T12:25:11;33.80;93.40
39983;DHT22;25670;44.782;10.356;2023-06-19T12:27:38;34.30;93.70
39983;DHT22;25670;44.782;10.356;2023-06-19T12:30:05;34.30;93.50
39983;DHT22;25670;44.782;10.356;2023-06-19T12:32:31;34.30;92.40
39983;DHT22;25670;44.782;10.356;2023-06-19T12:34:57;34.20;92.50
39983;DHT22;25670;44.782;10.356;2023-06-19T12:37:24;34.40;93.40
39983;DHT22;25670;44.782;10.356;2023-06-19T12:39:50;34.70;93.20
39983;DHT22;25670;44.782;10.356;2023-06-19T12:42:17;34.90;92.90
39983;DHT22;25670;44.782;10.356;2023-06-19T12:44:43;35.00;92.40
39983;DHT22;25670;44.782;10.356;2023-06-19T12:47:12;35.30;92.60
39983;DHT22;25670;44.782;10.356;2023-06-19T12:49:39;35.70;92.20
39983;DHT22;25670;44.782;10.356;2023-06-19T12:52:05;35.70;91.30
39983;DHT22;25670;44.782;10.356;2023-06-19T12:54:32;35.70;90.70
39983;DHT22;25670;44.782;10.356;2023-06-19T12:56:58;36.20;89.90
39983;DHT22;25670;44.782;10.356;2023-06-19T12:59:24;37.10;88.00
39983;DHT22;25670;44.782;10.356;2023-06-19T13:01:51;38.40;86.40
39983;DHT22;25670;44.782;10.356;2023-06-19T13:04:17;38.90;84.40
39983;DHT22;25670;44.782;10.356;2023-06-19T13:06:43;38.90;81.50
39983;DHT22;25670;44.782;10.356;2023-06-19T13:09:09;38.80;79.60
39983;DHT22;25670;44.782;10.356;2023-06-19T13:11:36;39.50;78.70
39983;DHT22;25670;44.782;10.356;2023-06-19T13:14:02;39.70;78.60
39983;DHT22;25670;44.782;10.356;2023-06-19T13:16:30;39.40;77.50
39983;DHT22;25670;44.782;10.356;2023-06-19T13:18:57;39.20;75.20
39983;DHT22;25670;44.782;10.356;2023-06-19T13:21:23;39.10;75.70
39983;DHT22;25670;44.782;10.356;2023-06-19T13:23:49;39.70;75.50
39983;DHT22;25670;44.782;10.356;2023-06-19T13:26:16;40.10;73.20
39983;DHT22;25670;44.782;10.356;2023-06-19T13:28:42;40.10;71.90
39983;DHT22;25670;44.782;10.356;2023-06-19T13:31:09;39.90;72.10
39983;DHT22;25670;44.782;10.356;2023-06-19T13:33:35;40.40;71.70
39983;DHT22;25670;44.782;10.356;2023-06-19T13:36:01;41.70;71.40
39983;DHT22;25670;44.782;10.356;2023-06-19T13:38:27;41.90;69.30
39983;DHT22;25670;44.782;10.356;2023-06-19T13:40:53;41.80;68.40
39983;DHT22;25670;44.782;10.356;2023-06-19T13:43:20;42.10;68.80
39983;DHT22;25670;44.782;10.356;2023-06-19T13:45:49;41.70;68.70
39983;DHT22;25670;44.782;10.356;2023-06-19T13:48:15;42.30;68.10
39983;DHT22;25670;44.782;10.356;2023-06-19T13:50:41;42.70;68.90
39983;DHT22;25670;44.782;10.356;2023-06-19T13:53:08;42.90;68.00
39983;DHT22;25670;44.782;10.356;2023-06-19T13:55:34;43.50;66.80
39983;DHT22;25670;44.782;10.356;2023-06-19T13:58:01;43.70;64.10
39983;DHT22;25670;44.782;10.356;2023-06-19T14:00:27;42.70;65.50
39983;DHT22;25670;44.782;10.356;2023-06-19T14:02:54;42.70;64.60
39983;DHT22;25670;44.782;10.356;2023-06-19T14:05:20;42.70;65.10
39983;DHT22;25670;44.782;10.356;2023-06-19T14:07:46;43.50;65.00
39983;DHT22;25670;44.782;10.356;2023-06-19T14:10:12;44.30;64.40
39983;DHT22;25670;44.782;10.356;2023-06-19T14:12:38;43.40;61.80
39983;DHT22;25670;44.782;10.356;2023-06-19T14:15:06;43.60;62.00
39983;DHT22;25670;44.782;10.356;2023-06-19T14:17:33;43.20;61.60
39983;DHT22;25670;44.782;10.356;2023-06-19T14:20:00;44.50;61.80
39983;DHT22;25670;44.782;10.356;2023-06-19T14:22:26;44.80;61.10
39983;DHT22;25670;44.782;10.356;2023-06-19T14:24:52;44.00;59.00
39983;DHT22;25670;44.782;10.356;2023-06-19T14:27:26;43.80;59.10
39983;DHT22;25670;44.782;10.356;2023-06-19T14:29:53;44.00;59.00
39983;DHT22;25670;44.782;10.356;2023-06-19T14:32:19;44.40;58.80
39983;DHT22;25670;44.782;10.356;2023-06-19T14:34:45;44.60;58.60
39983;DHT22;25670;44.782;10.356;2023-06-19T14:37:12;44.60;60.00
39983;DHT22;25670;44.782;10.356;2023-06-19T14:39:38;44.50;59.80
39983;DHT22;25670;44.782;10.356;2023-06-19T14:42:05;44.40;59.50
39983;DHT22;25670;44.782;10.356;2023-06-19T14:44:32;44.00;59.50
39983;DHT22;25670;44.782;10.356;2023-06-19T14:46:59;44.90;59.10
39983;DHT22;25670;44.782;10.356;2023-06-19T14:49:25;44.60;59.10
39983;DHT22;25670;44.782;10.356;2023-06-19T14:51:51;44.70;58.40
39983;DHT22;25670;44.782;10.356;2023-06-19T14:54:17;44.60;58.20
39983;DHT22;25670;44.782;10.356;2023-06-19T14:56:44;43.80;58.50
39983;DHT22;25670;44.782;10.356;2023-06-19T14:59:11;43.00;59.90
39983;DHT22;25670;44.782;10.356;2023-06-19T15:01:37;42.50;60.10
39983;DHT22;25670;44.782;10.356;2023-06-19T15:04:03;43.00;60.00
39983;DHT22;25670;44.782;10.356;2023-06-19T15:06:29;43.60;59.30
39983;DHT22;25670;44.782;10.356;2023-06-19T15:08:56;43.40;57.50
39983;DHT22;25670;44.782;10.356;2023-06-19T15:11:22;43.50;58.70
39983;DHT22;25670;44.782;10.356;2023-06-19T15:13:48;43.90;58.00
39983;DHT22;25670;44.782;10.356;2023-06-19T15:16:14;44.60;56.50
39983;DHT22;25670;44.782;10.356;2023-06-19T15:18:41;45.30;56.90
39983;DHT22;25670;44.782;10.356;2023-06-19T15:21:07;45.00;56.40
39983;DHT22;25670;44.782;10.356;2023-06-19T15:23:33;44.10;56.50
39983;DHT22;25670;44.782;10.356;2023-06-19T15:26:00;44.40;57.50
39983;DHT22;25670;44.782;10.356;2023-06-19T15:28:26;44.50;57.70
39983;DHT22;25670;44.782;10.356;2023-06-19T15:30:55;44.30;57.00
39983;DHT22;25670;44.782;10.356;2023-06-19T15:38:15;41.40;58.20
39983;DHT22;25670;44.782;10.356;2023-06-19T15:40:41;41.90;58.70
39983;DHT22;25670;44.782;10.356;2023-06-19T15:43:08;43.20;57.90
39983;DHT22;25670;44.782;10.356;2023-06-19T15:45:34;43.70;57.10
39983;DHT22;25670;44.782;10.356;2023-06-19T15:48:00;43.60;56.80
39983;DHT22;25670;44.782;10.356;2023-06-19T15:52:53;41.30;55.90
39983;DHT22;25670;44.782;10.356;2023-06-19T16:00:13;38.10;57.30
39983;DHT22;25670;44.782;10.356;2023-06-19T16:02:40;37.50;57.90
39983;DHT22;25670;44.782;10.356;2023-06-19T16:05:10;37.00;58.70
39983;DHT22;25670;44.782;10.356;2023-06-19T16:10:03;36.30;59.00
39983;DHT22;25670;44.782;10.356;2023-06-19T16:12:30;36.40;59.40
39983;DHT22;25670;44.782;10.356;2023-06-19T16:17:23;36.90;58.70
39983;DHT22;25670;44.782;10.356;2023-06-19T16:24:42;37.10;58.00
39983;DHT22;25670;44.782;10.356;2023-06-19T16:27:08;37.10;59.00
39983;DHT22;25670;44.782;10.356;2023-06-19T16:29:35;36.90;58.70
39983;DHT22;25670;44.782;10.356;2023-06-19T16:32:01;36.30;59.00
39983;DHT22;25670;44.782;10.356;2023-06-19T16:34:27;35.80;58.90
39983;DHT22;25670;44.782;10.356;2023-06-19T16:36:53;35.60;59.00
39983;DHT22;25670;44.782;10.356;2023-06-19T16:39:20;35.40;59.30
39983;DHT22;25670;44.782;10.356;2023-06-19T16:41:46;35.30;58.90